Time;durP1;ratioP1;P1;durP2;ratioP2;P2;SDS_P1;SDS_P2;PMS_P1;PMS_P2;Temp;Humidity;BMP_temperature;BMP_pressure;BME280_temperature;BME280_humidity;BME280_pressure;Samples;Min_cycle;Max_cycle;Signal;HPM_P1;HPM_P2
2023/12/22 00:01:28;;;;;;;11.55;4.45;;;14.60;99.20;;;;;;4593486;19;19998;-78
2023/12/22 00:03:03;;;;;;;12.18;5.60;;;14.60;98.90;;;;;;4593370;19;20010;-78
2023/12/22 00:04:38;;;;;;;16.30;7.85;;;14.60;98.90;;;;;;4593431;19;20328;-79
2023/12/22 00:06:12;;;;;;;13.45;5.85;;;14.60;98.90;;;;;;4592182;19;20097;-78
2023/12/22 00:07:47;;;;;;;10.80;4.65;;;14.60;98.70;;;;;;4592760;19;20002;-78
2023/12/22 00:09:22;;;;;;;11.00;4.28;;;14.60;98.60;;;;;;4593427;19;20010;-78
2023/12/22 00:10:57;;;;;;;12.52;4.53;;;14.60;98.60;;;;;;4593587;19;20003;-79
2023/12/22 00:12:31;;;;;;;12.65;4.30;;;14.60;98.60;;;;;;4591651;19;20066;-78
2023/12/22 00:14:06;;;;;;;13.55;4.47;;;14.60;98.60;;;;;;4593515;19;20006;-78
2023/12/22 00:15:42;;;;;;;12.90;4.18;;;14.60;98.60;;;;;;4592284;19;20011;-79
2023/12/22 00:17:16;;;;;;;11.25;4.40;;;14.60;98.70;;;;;;4593262;19;20094;-78
2023/12/22 00:18:52;;;;;;;12.20;3.65;;;14.60;98.50;;;;;;4592205;19;20102;-78
2023/12/22 00:20:28;;;;;;;12.73;4.72;;;14.60;98.50;;;;;;4592815;19;20002;-78
2023/12/22 00:22:03;;;;;;;11.18;3.85;;;14.60;98.70;;;;;;4593349;19;20421;-78
2023/12/22 00:23:38;;;;;;;9.77;4.10;;;14.60;98.40;;;;;;4593125;19;20014;-78
2023/12/22 00:25:12;;;;;;;11.65;3.40;;;14.60;98.40;;;;;;4592738;19;20074;-78
2023/12/22 00:26:47;;;;;;;12.55;4.03;;;14.60;98.30;;;;;;4592903;19;20484;-78
2023/12/22 00:28:22;;;;;;;10.50;3.75;;;14.50;98.40;;;;;;4593288;19;20006;-78
2023/12/22 00:29:56;;;;;;;11.85;4.18;;;14.50;98.20;;;;;;4592978;19;20524;-78
2023/12/22 00:31:30;;;;;;;8.10;2.83;;;14.50;98.20;;;;;;4592942;19;20425;-78
2023/12/22 00:33:07;;;;;;;11.15;4.38;;;14.50;98.20;;;;;;4592969;19;20082;-78
2023/12/22 00:34:41;;;;;;;11.73;4.97;;;14.50;98.30;;;;;;4592868;19;20448;-78
2023/12/22 00:36:18;;;;;;;11.13;3.50;;;14.50;98.30;;;;;;4592126;19;20009;-78
2023/12/22 00:37:53;;;;;;;10.55;3.58;;;14.50;98.10;;;;;;4593160;19;20007;-78
2023/12/22 00:39:27;;;;;;;9.20;3.95;;;14.50;98.00;;;;;;4591665;19;20025;-78
2023/12/22 00:41:02;;;;;;;11.90;4.70;;;14.50;98.70;;;;;;4592683;19;20009;-78
2023/12/22 00:42:37;;;;;;;9.20;4.10;;;14.50;98.30;;;;;;4592698;19;20034;-78
2023/12/22 00:44:11;;;;;;;10.43;3.80;;;14.50;98.30;;;;;;4592905;19;20006;-78
2023/12/22 00:45:45;;;;;;;11.00;4.78;;;14.40;98.10;;;;;;4592314;19;20013;-79
2023/12/22 00:47:20;;;;;;;11.23;4.00;;;14.50;98.70;;;;;;4592196;19;20149;-78
2023/12/22 00:48:55;;;;;;;11.52;4.05;;;14.50;98.40;;;;;;4592849;19;20005;-79
2023/12/22 00:50:29;;;;;;;10.57;3.85;;;14.50;98.30;;;;;;4592804;19;20006;-79
2023/12/22 00:52:05;;;;;;;13.30;4.22;;;14.40;98.20;;;;;;4592841;19;20003;-78
2023/12/22 00:53:40;;;;;;;11.77;4.00;;;14.40;98.70;;;;;;4592811;19;20093;-79
2023/12/22 00:55:14;;;;;;;8.07;3.25;;;14.50;98.50;;;;;;4592207;19;20010;-79
2023/12/22 00:56:49;;;;;;;10.07;3.20;;;14.50;98.40;;;;;;4592576;19;20023;-79
2023/12/22 00:58:23;;;;;;;9.35;3.63;;;14.50;98.40;;;;;;4592601;19;20002;-78
2023/12/22 00:59:57;;;;;;;7.10;3.13;;;14.40;98.40;;;;;;4592388;19;20040;-79
2023/12/22 01:17:13;;;;;;;12.82;4.18;;;14.40;98.20;;;;;;4581754;19;20032;-78
2023/12/22 01:18:48;;;;;;;12.00;4.53;;;14.40;98.30;;;;;;4592248;19;20029;-78
2023/12/22 01:20:24;;;;;;;11.43;3.63;;;14.40;98.10;;;;;;4592129;19;20009;-78
2023/12/22 01:21:58;;;;;;;14.43;4.10;;;14.40;98.10;;;;;;4592040;19;19999;-78
2023/12/22 01:23:34;;;;;;;14.60;4.50;;;14.40;98.10;;;;;;4592398;19;20421;-78
2023/12/22 01:25:08;;;;;;;15.57;4.97;;;14.40;98.30;;;;;;4596640;19;19999;-77
2023/12/22 01:26:42;;;;;;;10.40;3.83;;;14.40;98.40;;;;;;4595581;19;20444;-78
2023/12/22 01:28:17;;;;;;;10.82;4.63;;;14.40;97.90;;;;;;4594191;19;19998;-77
2023/12/22 01:29:51;;;;;;;11.30;4.20;;;14.40;97.90;;;;;;4596322;19;19999;-77
2023/12/22 01:31:25;;;;;;;12.00;4.63;;;14.40;99.70;;;;;;4596589;19;20073;-78
2023/12/22 01:33:00;;;;;;;10.10;4.63;;;14.40;99.20;;;;;;4596869;19;20003;-77
2023/12/22 01:34:35;;;;;;;11.68;5.75;;;14.40;98.00;;;;;;4596605;19;20003;-77
2023/12/22 01:36:09;;;;;;;9.20;4.35;;;14.40;98.10;;;;;;4596436;19;20358;-77
2023/12/22 01:37:44;;;;;;;9.50;3.25;;;14.40;98.40;;;;;;4595280;19;20321;-77
2023/12/22 01:39:19;;;;;;;8.77;3.33;;;14.30;98.10;;;;;;4596444;19;20002;-77
2023/12/22 01:40:53;;;;;;;9.63;4.47;;;14.30;97.80;;;;;;4595398;19;20006;-76
2023/12/22 01:42:28;;;;;;;8.20;3.38;;;14.30;98.00;;;;;;4595234;19;20006;-77
2023/12/22 01:44:03;;;;;;;9.77;4.18;;;14.30;98.30;;;;;;4596106;19;20005;-77
2023/12/22 01:45:37;;;;;;;7.43;3.30;;;14.30;98.10;;;;;;4596331;19;20002;-77
2023/12/22 01:47:12;;;;;;;11.05;3.65;;;14.30;98.20;;;;;;4593326;19;20010;-78
2023/12/22 01:48:47;;;;;;;11.40;3.80;;;14.30;98.30;;;;;;4595023;19;20014;-77
2023/12/22 01:50:21;;;;;;;11.70;3.88;;;14.30;98.50;;;;;;4595818;19;20011;-77
2023/12/22 01:51:58;;;;;;;11.63;4.50;;;14.30;98.60;;;;;;4596308;19;20014;-77
2023/12/22 01:53:32;;;;;;;13.35;4.82;;;14.30;98.80;;;;;;4596439;19;20003;-78
2023/12/22 01:55:07;;;;;;;8.90;3.85;;;14.30;99.00;;;;;;4596132;19;20003;-77
2023/12/22 01:56:42;;;;;;;10.38;3.35;;;14.30;99.50;;;;;;4594099;19;20010;-77
2023/12/22 01:58:16;;;;;;;8.15;3.45;;;14.30;99.20;;;;;;4594967;19;20025;-77
2023/12/22 01:59:50;;;;;;;12.48;5.38;;;14.30;99.20;;;;;;4595685;19;19999;-77
2023/12/22 02:04:07;;;;;;;14.13;4.53;;;14.30;99.40;;;;;;4596019;19;19979;-77
2023/12/22 02:05:43;;;;;;;9.63;4.13;;;14.30;99.20;;;;;;4594938;19;20006;-77
2023/12/22 02:07:17;;;;;;;7.35;3.13;;;14.30;99.30;;;;;;4593039;19;20006;-77
2023/12/22 02:08:51;;;;;;;11.55;3.50;;;14.30;99.30;;;;;;4594531;19;20036;-77
2023/12/22 02:10:27;;;;;;;10.10;3.83;;;14.30;99.30;;;;;;4595557;19;20024;-77
2023/12/22 02:12:02;;;;;;;9.80;4.22;;;14.30;99.20;;;;;;4594505;19;20081;-78
2023/12/22 02:13:37;;;;;;;8.15;3.17;;;14.30;99.40;;;;;;4595415;19;19998;-78
2023/12/22 02:15:13;;;;;;;8.70;3.63;;;14.30;99.20;;;;;;4594514;19;20006;-78
2023/12/22 02:17:06;;;;;;;10.80;3.35;;;14.30;99.20;;;;;;4593994;19;20070;-78
2023/12/22 02:18:40;;;;;;;7.20;2.45;;;14.30;99.10;;;;;;4595979;19;20010;-78
2023/12/22 02:20:18;;;;;;;10.32;2.75;;;14.30;99.40;;;;;;4595642;19;20033;-78
2023/12/22 02:22:07;;;;;;;9.77;2.75;;;14.30;98.90;;;;;;4595598;19;20002;-78
2023/12/22 02:23:42;;;;;;;7.05;2.83;;;14.30;98.70;;;;;;4594350;19;19999;-78
2023/12/22 02:25:17;;;;;;;6.78;2.97;;;14.30;99.90;;;;;;4594321;19;20017;-78
2023/12/22 02:26:52;;;;;;;9.02;3.05;;;14.30;98.70;;;;;;4594001;19;20006;-78
2023/12/22 02:28:26;;;;;;;8.85;2.90;;;14.30;98.60;;;;;;4595669;19;20398;-78
2023/12/22 02:30:21;;;;;;;8.05;2.38;;;14.30;98.40;;;;;;4595515;19;20078;-78
2023/12/22 02:31:56;;;;;;;7.38;2.75;;;14.20;98.60;;;;;;4595359;19;20035;-78
2023/12/22 02:33:31;;;;;;;9.73;3.47;;;14.20;98.60;;;;;;4594084;19;20414;-78
2023/12/22 02:35:10;;;;;;;8.38;3.25;;;14.30;98.60;;;;;;4593986;19;20013;-78
2023/12/22 02:36:44;;;;;;;8.32;3.22;;;14.30;98.60;;;;;;4591518;19;20477;-78
2023/12/22 02:38:18;;;;;;;8.85;3.60;;;14.30;99.40;;;;;;4594225;19;20025;-78
2023/12/22 02:39:54;;;;;;;9.38;3.67;;;14.30;98.80;;;;;;4594934;19;20006;-78
2023/12/22 02:41:28;;;;;;;11.18;3.95;;;14.30;99.30;;;;;;4595181;19;19999;-77
2023/12/22 02:43:04;;;;;;;10.85;3.72;;;14.30;98.60;;;;;;4593804;19;20062;-77
2023/12/22 02:44:39;;;;;;;8.73;2.78;;;14.30;98.70;;;;;;4593849;19;20011;-77
2023/12/22 02:46:17;;;;;;;8.02;2.97;;;14.30;99.50;;;;;;4594345;19;20066;-77
2023/12/22 02:47:51;;;;;;;8.77;3.20;;;14.30;98.60;;;;;;4594010;19;20025;-77
2023/12/22 02:49:28;;;;;;;8.15;3.08;;;14.30;98.80;;;;;;4595369;19;20073;-77
2023/12/22 02:51:02;;;;;;;11.50;3.55;;;14.30;98.50;;;;;;4594974;19;20317;-77
2023/12/22 02:52:36;;;;;;;8.57;3.50;;;14.30;98.50;;;;;;4594898;19;20010;-77
2023/12/22 02:54:13;;;;;;;7.57;3.00;;;14.30;98.40;;;;;;4595038;19;20078;-77
2023/12/22 02:55:48;;;;;;;10.38;2.85;;;14.30;98.50;;;;;;4594930;19;20003;-77
2023/12/22 02:57:22;;;;;;;13.32;3.88;;;14.30;98.30;;;;;;4593324;19;20006;-77
2023/12/22 02:58:57;;;;;;;7.85;2.95;;;14.30;98.40;;;;;;4595191;19;20011;-77
2023/12/22 03:00:31;;;;;;;8.27;3.17;;;14.30;98.50;;;;;;4595129;19;20448;-77
2023/12/22 03:02:06;;;;;;;9.13;3.38;;;14.30;98.60;;;;;;4595060;19;20317;-78
2023/12/22 03:03:42;;;;;;;8.80;3.10;;;14.30;98.10;;;;;;4594864;19;20029;-78
2023/12/22 03:05:16;;;;;;;8.93;3.40;;;14.30;98.00;;;;;;4594697;19;20006;-77
2023/12/22 03:06:50;;;;;;;11.35;6.30;;;14.30;98.00;;;;;;4593985;19;20006;-77
2023/12/22 03:08:26;;;;;;;10.48;4.15;;;14.30;98.60;;;;;;4594745;19;20011;-77
2023/12/22 03:10:00;;;;;;;13.73;7.72;;;14.30;98.10;;;;;;4594698;19;20003;-78
2023/12/22 03:11:35;;;;;;;10.52;5.05;;;14.30;98.20;;;;;;4594530;19;20006;-78
2023/12/22 03:13:10;;;;;;;13.90;5.47;;;14.30;98.00;;;;;;4594691;19;20017;-77
2023/12/22 03:14:44;;;;;;;14.48;5.60;;;14.30;97.80;;;;;;4594531;19;20002;-78
2023/12/22 03:16:19;;;;;;;14.30;5.95;;;14.30;97.70;;;;;;4593795;19;20043;-78
2023/12/22 03:17:54;;;;;;;10.23;3.97;;;14.30;97.60;;;;;;4594499;19;20006;-78
2023/12/22 03:19:29;;;;;;;10.25;4.03;;;14.30;97.60;;;;;;4594516;19;20318;-77
2023/12/22 03:21:05;;;;;;;15.43;5.47;;;14.40;97.60;;;;;;4594438;19;20317;-79
2023/12/22 03:22:40;;;;;;;10.93;4.22;;;14.40;97.60;;;;;;4594494;19;20006;-77
2023/12/22 03:24:14;;;;;;;10.00;4.68;;;14.50;97.50;;;;;;4594308;19;20002;-77
2023/12/22 03:25:49;;;;;;;8.40;3.42;;;14.60;97.40;;;;;;4594365;19;19998;-77
2023/12/22 03:27:24;;;;;;;12.52;4.25;;;14.60;97.30;;;;;;4592782;19;20011;-78
2023/12/22 03:28:58;;;;;;;13.82;5.40;;;14.60;97.20;;;;;;4594580;19;20005;-80
2023/12/22 03:30:32;;;;;;;11.80;4.65;;;14.70;97.10;;;;;;4593945;19;20074;-77
2023/12/22 03:32:07;;;;;;;11.73;4.15;;;14.70;96.90;;;;;;4594369;19;20013;-77
2023/12/22 03:33:42;;;;;;;8.27;3.10;;;14.70;96.60;;;;;;4594051;19;20018;-77
2023/12/22 03:35:17;;;;;;;9.18;3.72;;;14.70;96.30;;;;;;4592624;19;20006;-78
2023/12/22 03:36:52;;;;;;;8.20;3.33;;;14.80;99.90;;;;;;4593086;19;20006;-78
2023/12/22 03:38:27;;;;;;;8.85;2.70;;;14.80;96.70;;;;;;4594317;19;20003;-78
2023/12/22 03:40:01;;;;;;;9.90;3.47;;;14.80;95.80;;;;;;4594049;19;20375;-77
2023/12/22 03:41:38;;;;;;;9.93;4.03;;;14.80;95.90;;;;;;4594470;19;20006;-77
2023/12/22 03:43:13;;;;;;;9.90;3.75;;;14.90;96.20;;;;;;4593899;19;20002;-78
2023/12/22 03:44:47;;;;;;;9.43;3.65;;;14.90;96.20;;;;;;4593933;19;20339;-78
2023/12/22 03:46:23;;;;;;;10.30;3.83;;;14.90;95.50;;;;;;4593870;19;20413;-78
2023/12/22 03:47:57;;;;;;;14.95;4.90;;;14.90;95.50;;;;;;4591096;19;20007;-78
2023/12/22 03:49:34;;;;;;;8.10;2.70;;;14.90;95.50;;;;;;4593500;19;20021;-78
2023/12/22 03:51:10;;;;;;;10.75;2.85;;;14.80;95.60;;;;;;4593946;19;20234;-78
2023/12/22 03:52:46;;;;;;;9.20;3.20;;;14.80;94.90;;;;;;4594009;19;20446;-78
2023/12/22 03:54:21;;;;;;;15.57;4.93;;;14.80;94.90;;;;;;4593756;19;20010;-78
2023/12/22 03:55:56;;;;;;;8.75;2.42;;;14.80;95.20;;;;;;4593884;19;20029;-78
2023/12/22 03:57:30;;;;;;;10.07;3.22;;;14.90;95.60;;;;;;4593650;19;20009;-78
2023/12/22 03:59:04;;;;;;;11.48;3.10;;;14.80;94.90;;;;;;4593598;19;20002;-78
2023/12/22 04:00:39;;;;;;;11.75;3.78;;;14.90;94.70;;;;;;4593970;19;20026;-77
2023/12/22 04:02:13;;;;;;;12.57;3.45;;;14.90;94.90;;;;;;4593575;19;19999;-77
2023/12/22 04:03:47;;;;;;;14.82;3.95;;;14.80;94.60;;;;;;4593555;19;20317;-78
2023/12/22 04:05:23;;;;;;;8.98;3.28;;;14.80;94.50;;;;;;4593578;19;20011;-78
2023/12/22 04:06:58;;;;;;;9.23;3.83;;;14.90;94.70;;;;;;4592586;19;20003;-78
2023/12/22 04:08:32;;;;;;;8.60;3.22;;;14.80;94.20;;;;;;4593622;19;20287;-78
2023/12/22 04:10:07;;;;;;;13.27;3.97;;;14.80;95.40;;;;;;4593441;19;20005;-78
2023/12/22 04:11:41;;;;;;;8.65;3.35;;;14.80;93.90;;;;;;4593357;19;20021;-78
2023/12/22 04:13:16;;;;;;;10.55;3.35;;;14.70;94.00;;;;;;4593640;19;20003;-78
2023/12/22 04:14:53;;;;;;;9.00;3.45;;;14.70;94.10;;;;;;4593359;19;20010;-78
2023/12/22 04:16:29;;;;;;;12.20;3.58;;;14.70;94.10;;;;;;4592549;19;20019;-78
2023/12/22 04:18:04;;;;;;;13.40;3.97;;;14.70;93.90;;;;;;4593281;19;20086;-78
2023/12/22 04:19:39;;;;;;;9.52;2.63;;;14.70;94.20;;;;;;4593202;19;20434;-77
2023/12/22 04:21:13;;;;;;;11.15;3.15;;;14.70;93.80;;;;;;4593063;19;20313;-77
2023/12/22 04:22:47;;;;;;;15.60;4.25;;;14.70;93.80;;;;;;4591774;19;20010;-78
2023/12/22 04:24:23;;;;;;;12.90;4.25;;;14.60;93.70;;;;;;4592835;19;20290;-78
2023/12/22 04:25:57;;;;;;;10.20;3.25;;;14.60;93.70;;;;;;4591601;19;20002;-78
2023/12/22 04:27:32;;;;;;;11.73;4.25;;;14.60;93.80;;;;;;4592170;19;19999;-78
2023/12/22 04:29:07;;;;;;;11.60;3.20;;;14.60;93.90;;;;;;4593120;19;20006;-77
2023/12/22 04:30:41;;;;;;;11.38;3.00;;;14.60;94.10;;;;;;4591842;19;20005;-78
2023/12/22 04:32:15;;;;;;;9.88;3.17;;;14.60;94.30;;;;;;4592558;19;20057;-78
2023/12/22 04:33:50;;;;;;;10.20;3.53;;;14.60;94.60;;;;;;4593152;19;20351;-78
2023/12/22 04:35:24;;;;;;;10.20;3.78;;;14.60;95.00;;;;;;4593167;19;19999;-78
2023/12/22 04:36:59;;;;;;;9.55;3.25;;;14.60;96.00;;;;;;4591996;19;20026;-77
2023/12/22 04:38:34;;;;;;;11.40;3.47;;;14.60;95.20;;;;;;4592880;19;20028;-77
2023/12/22 04:40:09;;;;;;;11.50;3.53;;;14.60;95.50;;;;;;4592712;19;20003;-77
2023/12/22 04:41:42;;;;;;;9.50;3.42;;;14.60;95.00;;;;;;4591395;19;19998;-77
2023/12/22 04:43:19;;;;;;;13.70;4.55;;;14.60;95.30;;;;;;4592437;19;20013;-77
2023/12/22 04:44:54;;;;;;;12.20;4.22;;;14.60;94.90;;;;;;4592685;19;20432;-77
2023/12/22 04:46:29;;;;;;;13.10;4.93;;;14.60;94.70;;;;;;4592832;19;20041;-77
2023/12/22 04:48:07;;;;;;;11.23;3.40;;;14.60;94.80;;;;;;4591869;19;20007;-78
2023/12/22 04:49:42;;;;;;;12.15;3.55;;;14.60;94.40;;;;;;4592524;19;20018;-76
2023/12/22 04:51:16;;;;;;;10.93;3.58;;;14.60;94.10;;;;;;4592569;19;20421;-80
2023/12/22 04:52:53;;;;;;;9.93;4.40;;;14.60;94.10;;;;;;4592873;19;20022;-77
2023/12/22 04:54:27;;;;;;;10.38;3.63;;;14.70;93.70;;;;;;4592813;19;20006;-79
2023/12/22 04:56:01;;;;;;;13.75;3.67;;;14.80;93.50;;;;;;4592323;19;20433;-77
2023/12/22 04:57:36;;;;;;;10.35;3.10;;;14.90;93.10;;;;;;4592750;19;20006;-77
2023/12/22 04:59:11;;;;;;;10.35;3.13;;;15.00;92.80;;;;;;4590872;19;20003;-77
2023/12/22 05:00:45;;;;;;;10.15;3.00;;;15.10;92.70;;;;;;4592412;19;20070;-77
2023/12/22 05:02:21;;;;;;;12.65;3.35;;;15.20;92.30;;;;;;4592765;19;20094;-76
2023/12/22 05:03:56;;;;;;;9.57;3.88;;;15.30;92.30;;;;;;4592661;19;20302;-77
2023/12/22 05:05:30;;;;;;;11.13;3.38;;;15.40;92.00;;;;;;4592287;19;20011;-77
2023/12/22 05:07:07;;;;;;;7.53;3.30;;;15.40;91.60;;;;;;4591269;19;20416;-77
2023/12/22 05:08:41;;;;;;;11.55;2.92;;;15.40;91.40;;;;;;4591066;19;20070;-77
2023/12/22 05:10:15;;;;;;;11.73;3.95;;;15.50;91.30;;;;;;4592021;19;20013;-81
2023/12/22 05:11:50;;;;;;;8.15;3.35;;;15.60;93.30;;;;;;4592492;19;20005;-79
2023/12/22 05:13:24;;;;;;;10.95;2.95;;;15.60;91.50;;;;;;4592211;19;19998;-78
2023/12/22 05:14:58;;;;;;;9.48;3.17;;;15.60;93.60;;;;;;4592197;19;20006;-77
2023/12/22 05:16:34;;;;;;;12.48;3.30;;;15.60;90.70;;;;;;4589940;19;20515;-74
2023/12/22 05:18:08;;;;;;;10.55;3.55;;;15.60;90.50;;;;;;4591078;19;20003;-79
2023/12/22 05:19:42;;;;;;;12.05;3.53;;;15.60;90.80;;;;;;4591752;19;20006;-77
2023/12/22 05:21:19;;;;;;;11.48;3.40;;;15.60;91.70;;;;;;4592158;19;20007;-77
2023/12/22 05:22:52;;;;;;;9.88;2.72;;;15.50;91.30;;;;;;4592874;19;20382;-77
2023/12/22 05:24:26;;;;;;;8.55;3.10;;;15.50;92.10;;;;;;4592023;19;20006;-77
2023/12/22 05:26:03;;;;;;;11.75;2.70;;;15.50;90.50;;;;;;4591864;19;20009;-77
2023/12/22 05:27:37;;;;;;;11.00;3.88;;;15.40;90.80;;;;;;4591438;19;19999;-77
2023/12/22 05:29:13;;;;;;;9.30;2.53;;;15.50;90.60;;;;;;4590733;19;20065;-77
2023/12/22 05:30:48;;;;;;;11.20;2.97;;;15.40;90.40;;;;;;4591934;19;20007;-77
2023/12/22 05:32:22;;;;;;;12.45;3.63;;;15.40;90.60;;;;;;4592198;19;20003;-77
2023/12/22 05:33:57;;;;;;;8.55;2.30;;;15.40;90.70;;;;;;4591844;19;20031;-78
2023/12/22 05:35:34;;;;;;;7.03;2.83;;;15.30;90.40;;;;;;4591964;19;20024;-77
2023/12/22 05:37:09;;;;;;;7.80;2.67;;;15.30;90.20;;;;;;4591034;19;20071;-77
2023/12/22 05:38:43;;;;;;;8.07;2.75;;;15.30;90.60;;;;;;4591766;19;20024;-77
2023/12/22 05:40:18;;;;;;;8.20;2.85;;;15.30;90.00;;;;;;4591853;19;20035;-77
2023/12/22 05:41:52;;;;;;;7.13;2.33;;;15.30;90.10;;;;;;4591734;19;19999;-78
2023/12/22 05:43:27;;;;;;;9.52;2.75;;;15.20;89.90;;;;;;4591991;19;20005;-78
2023/12/22 05:45:02;;;;;;;9.13;3.22;;;15.20;89.90;;;;;;4591628;19;20066;-78
2023/12/22 05:46:40;;;;;;;10.18;2.70;;;15.20;90.20;;;;;;4591036;19;20017;-78
2023/12/22 05:48:14;;;;;;;7.78;2.30;;;15.10;89.50;;;;;;4590724;19;20009;-79
2023/12/22 05:49:50;;;;;;;7.80;2.10;;;15.10;89.60;;;;;;4592025;19;20019;-78
2023/12/22 05:51:25;;;;;;;9.35;2.50;;;15.10;88.50;;;;;;4591581;19;20321;-78
2023/12/22 05:52:59;;;;;;;7.05;2.53;;;15.10;87.70;;;;;;4591847;19;20023;-79
2023/12/22 05:54:35;;;;;;;6.43;1.95;;;15.10;86.90;;;;;;4591658;19;20013;-79
2023/12/22 05:56:24;;;;;;;8.30;2.58;;;15.00;87.10;;;;;;4591432;19;19999;-78
2023/12/22 05:57:58;;;;;;;8.85;2.33;;;15.00;88.00;;;;;;4591814;19;20010;-77
2023/12/22 05:59:36;;;;;;;5.93;1.88;;;15.00;87.20;;;;;;4591738;19;20007;-77
2023/12/22 06:01:18;;;;;;;9.40;2.58;;;15.00;87.30;;;;;;4591368;19;20002;-77
2023/12/22 06:02:52;;;;;;;10.23;2.67;;;15.00;87.30;;;;;;4591504;19;20011;-77
2023/12/22 06:04:27;;;;;;;11.93;5.40;;;14.90;86.40;;;;;;4591413;19;20017;-77
2023/12/22 06:06:01;;;;;;;8.30;2.35;;;14.90;86.10;;;;;;4590031;19;20009;-77
2023/12/22 06:07:36;;;;;;;8.57;2.25;;;14.90;86.20;;;;;;4590637;19;20073;-77
2023/12/22 06:09:12;;;;;;;7.40;2.42;;;14.90;86.20;;;;;;4591568;19;20010;-77
2023/12/22 06:10:47;;;;;;;8.02;2.60;;;14.90;86.50;;;;;;4594837;19;19994;-76
2023/12/22 06:12:23;;;;;;;9.77;3.00;;;15.00;86.70;;;;;;4595837;19;20013;-77
2023/12/22 06:13:58;;;;;;;9.32;4.43;;;15.20;86.70;;;;;;4595796;19;20013;-77
2023/12/22 06:15:32;;;;;;;10.65;3.92;;;15.30;86.60;;;;;;4595677;19;20019;-77
2023/12/22 06:17:06;;;;;;;11.90;5.15;;;15.40;86.20;;;;;;4594007;19;20014;-77
2023/12/22 06:18:42;;;;;;;15.57;4.25;;;15.60;86.30;;;;;;4596030;19;20011;-76
2023/12/22 06:20:16;;;;;;;9.50;4.18;;;15.70;86.70;;;;;;4594596;19;20002;-76
2023/12/22 06:21:50;;;;;;;9.63;3.17;;;15.80;86.20;;;;;;4595310;19;19998;-77
2023/12/22 06:23:25;;;;;;;8.02;3.33;;;15.90;85.70;;;;;;4594775;19;20002;-77
2023/12/22 06:25:00;;;;;;;9.63;2.83;;;15.90;84.80;;;;;;4595307;19;20003;-77
2023/12/22 06:26:34;;;;;;;12.85;3.22;;;16.00;84.30;;;;;;4594668;19;20006;-77
2023/12/22 06:28:09;;;;;;;13.27;4.50;;;16.00;84.20;;;;;;4594550;19;20055;-77
2023/12/22 06:29:44;;;;;;;11.07;4.57;;;16.10;84.40;;;;;;4595487;19;20058;-77
2023/12/22 06:31:19;;;;;;;11.93;4.63;;;16.20;85.00;;;;;;4595421;19;20019;-76
2023/12/22 06:32:55;;;;;;;11.65;4.07;;;16.20;84.70;;;;;;4594229;19;20010;-77
2023/12/22 06:34:30;;;;;;;9.00;3.70;;;16.20;84.40;;;;;;4595039;19;19999;-77
2023/12/22 06:36:04;;;;;;;13.82;4.70;;;16.30;83.80;;;;;;4595340;19;20021;-77
2023/12/22 06:37:39;;;;;;;13.63;4.50;;;16.40;83.60;;;;;;4595623;19;20013;-77
2023/12/22 06:39:13;;;;;;;10.23;3.80;;;16.40;83.70;;;;;;4595258;19;20329;-77
2023/12/22 06:40:48;;;;;;;13.07;4.53;;;16.50;83.70;;;;;;4595495;19;20019;-77
2023/12/22 06:42:24;;;;;;;9.43;4.25;;;16.50;83.30;;;;;;4595316;19;20298;-77
2023/12/22 06:44:01;;;;;;;12.45;4.15;;;16.60;83.10;;;;;;4595101;19;20010;-77
2023/12/22 06:45:36;;;;;;;12.68;4.03;;;16.70;83.60;;;;;;4593995;19;19998;-77
2023/12/22 06:47:11;;;;;;;11.65;4.28;;;16.70;83.50;;;;;;4593355;19;20018;-77
2023/12/22 06:48:46;;;;;;;12.00;4.40;;;16.70;83.10;;;;;;4595361;19;20003;-77
2023/12/22 06:50:20;;;;;;;13.73;5.45;;;16.80;83.00;;;;;;4594989;19;20435;-77
2023/12/22 06:51:56;;;;;;;7.60;2.50;;;16.80;83.00;;;;;;4595112;19;20006;-77
2023/12/22 06:53:32;;;;;;;9.00;3.38;;;16.70;82.00;;;;;;4595023;19;20062;-77
2023/12/22 06:55:06;;;;;;;8.48;4.07;;;16.80;82.20;;;;;;4595045;19;20429;-77
2023/12/22 06:56:42;;;;;;;9.43;2.97;;;16.70;82.70;;;;;;4594282;19;20033;-77
2023/12/22 06:58:16;;;;;;;9.20;3.10;;;16.70;81.70;;;;;;4593317;19;20007;-77
2023/12/22 06:59:50;;;;;;;10.88;3.75;;;16.60;81.40;;;;;;4594577;19;20003;-76
2023/12/22 07:01:34;;;;;;;10.55;4.15;;;16.60;81.90;;;;;;4594737;19;20337;-76
2023/12/22 07:03:08;;;;;;;9.02;3.20;;;16.60;83.50;;;;;;4593338;19;20374;-77
2023/12/22 07:05:09;;;;;;;8.95;2.80;;;16.60;81.00;;;;;;4594295;19;19998;-77
2023/12/22 07:06:48;;;;;;;8.65;2.65;;;16.50;81.80;;;;;;4591420;19;20326;-77
2023/12/22 07:08:22;;;;;;;9.50;2.58;;;16.40;81.20;;;;;;4593531;19;20278;-77
2023/12/22 07:09:56;;;;;;;7.72;2.92;;;16.40;81.30;;;;;;4593139;19;20002;-77
2023/12/22 07:11:32;;;;;;;10.63;3.30;;;16.30;81.20;;;;;;4594177;19;20010;-77
2023/12/22 07:13:06;;;;;;;11.80;4.35;;;16.30;81.50;;;;;;4593051;19;20009;-77
2023/12/22 07:14:40;;;;;;;6.30;2.08;;;16.20;81.60;;;;;;4594006;19;20321;-77
2023/12/22 07:16:16;;;;;;;12.15;5.15;;;16.20;81.80;;;;;;4593569;19;20073;-77
2023/12/22 07:17:50;;;;;;;11.05;4.82;;;16.20;81.70;;;;;;4593224;19;20006;-77
2023/12/22 07:19:25;;;;;;;14.55;4.55;;;16.10;82.30;;;;;;4594185;19;20062;-78
2023/12/22 07:21:01;;;;;;;11.48;3.95;;;16.00;81.70;;;;;;4594343;19;20014;-78
2023/12/22 07:22:35;;;;;;;9.77;3.33;;;16.00;81.80;;;;;;4593239;19;20003;-77
2023/12/22 07:24:09;;;;;;;9.20;3.30;;;16.00;81.70;;;;;;4594733;19;20074;-78
2023/12/22 07:25:45;;;;;;;12.82;4.00;;;15.90;81.00;;;;;;4594247;19;20019;-78
2023/12/22 07:27:20;;;;;;;8.95;3.33;;;15.80;81.10;;;;;;4592657;19;20325;-82
2023/12/22 07:28:55;;;;;;;9.30;2.90;;;15.80;81.10;;;;;;4594386;19;20025;-78
2023/12/22 07:30:30;;;;;;;8.55;3.17;;;15.70;81.20;;;;;;4592799;19;20006;-79
2023/12/22 07:32:06;;;;;;;10.02;3.20;;;15.70;81.60;;;;;;4593647;19;20010;-77
2023/12/22 07:33:41;;;;;;;9.68;3.78;;;15.70;81.50;;;;;;4594040;19;20010;-79
2023/12/22 07:35:18;;;;;;;13.30;5.68;;;15.60;81.40;;;;;;4594092;19;20070;-79
2023/12/22 07:36:53;;;;;;;13.00;4.05;;;15.60;82.00;;;;;;4593041;19;20010;-78
2023/12/22 07:38:28;;;;;;;9.57;3.63;;;15.60;81.80;;;;;;4593961;19;20337;-79
2023/12/22 07:40:03;;;;;;;7.70;2.80;;;15.50;82.50;;;;;;4594052;19;20002;-79
2023/12/22 07:41:38;;;;;;;8.05;3.70;;;15.50;82.60;;;;;;4593816;19;20006;-78
2023/12/22 07:43:14;;;;;;;9.50;3.63;;;15.50;82.90;;;;;;4594087;19;20073;-78
2023/12/22 07:44:49;;;;;;;9.65;3.67;;;15.40;83.80;;;;;;4592477;19;20007;-79
2023/12/22 07:46:23;;;;;;;11.02;4.15;;;15.40;84.40;;;;;;4593135;19;20426;-78
2023/12/22 07:47:57;;;;;;;7.57;3.08;;;15.40;85.00;;;;;;4592958;19;19999;-78
2023/12/22 07:49:35;;;;;;;12.43;4.65;;;15.30;85.30;;;;;;4593384;19;20006;-78
2023/12/22 07:51:08;;;;;;;9.75;3.40;;;15.30;85.70;;;;;;4593941;19;20006;-79
2023/12/22 07:52:43;;;;;;;7.53;2.92;;;15.30;86.40;;;;;;4593842;19;20005;-78
2023/12/22 07:54:20;;;;;;;11.52;4.00;;;15.20;86.50;;;;;;4593915;19;20007;-78
2023/12/22 07:55:54;;;;;;;8.10;3.35;;;15.20;87.10;;;;;;4593397;19;20006;-76
2023/12/22 07:57:28;;;;;;;10.43;3.50;;;15.20;87.40;;;;;;4593427;19;20002;-77
2023/12/22 07:59:04;;;;;;;11.38;4.00;;;15.20;87.60;;;;;;4593602;19;19999;-77
2023/12/22 08:00:38;;;;;;;10.27;3.53;;;15.20;88.30;;;;;;4593468;19;20377;-77
2023/12/22 08:02:12;;;;;;;10.25;4.18;;;15.20;88.30;;;;;;4593417;19;20441;-77
2023/12/22 08:03:49;;;;;;;11.23;4.63;;;15.10;88.30;;;;;;4592500;19;20425;-77
2023/12/22 08:05:24;;;;;;;8.05;3.55;;;15.10;88.70;;;;;;4593008;19;20323;-78
2023/12/22 08:06:58;;;;;;;10.48;3.92;;;15.10;88.80;;;;;;4592629;19;20003;-78
2023/12/22 08:08:34;;;;;;;9.45;3.10;;;15.10;89.00;;;;;;4592224;19;20007;-78
2023/12/22 08:10:09;;;;;;;14.18;4.78;;;15.10;88.50;;;;;;4593075;19;20441;-78
2023/12/22 08:11:46;;;;;;;6.97;2.70;;;15.10;88.40;;;;;;4593167;19;20006;-78
2023/12/22 08:13:21;;;;;;;7.80;3.67;;;15.00;87.50;;;;;;4593455;19;20003;-78
2023/12/22 08:14:56;;;;;;;10.57;3.30;;;15.00;87.60;;;;;;4593426;19;20020;-77
2023/12/22 08:16:32;;;;;;;7.03;3.03;;;15.00;87.80;;;;;;4592113;19;20030;-78
2023/12/22 08:18:09;;;;;;;10.18;3.70;;;15.00;87.70;;;;;;4593392;19;20010;-78
2023/12/22 08:19:44;;;;;;;9.85;4.10;;;14.90;88.00;;;;;;4593200;19;20062;-77
2023/12/22 08:21:18;;;;;;;8.98;2.85;;;14.90;88.20;;;;;;4593012;19;19998;-77
2023/12/22 08:22:53;;;;;;;9.50;3.50;;;14.90;88.30;;;;;;4593040;19;20465;-77
2023/12/22 08:24:27;;;;;;;9.68;3.50;;;14.90;88.30;;;;;;4592899;19;20002;-77
2023/12/22 08:26:01;;;;;;;11.98;4.70;;;14.90;88.80;;;;;;4592677;19;20365;-77
2023/12/22 08:27:37;;;;;;;9.43;3.90;;;14.90;89.00;;;;;;4592472;19;20425;-77
2023/12/22 08:29:12;;;;;;;9.70;4.03;;;14.80;88.90;;;;;;4593215;19;20007;-77
2023/12/22 08:30:46;;;;;;;10.00;3.70;;;14.80;89.10;;;;;;4593238;19;20418;-77